首页
METAR-TAF:

METAR-TAF

机场 :

Port Hardy, 不列颠哥伦比亚, 加拿大

纬度: 50-41N, 经度: 127-22W, 海拔: 22米

当前天气观测

该预报发布于25分钟前的13:00 UTC
风速5节,风向西北
温度 10°C
湿度 93%
气压 1018 hPa
能見度: 9.7公里
阴天层高于800英尺
小雨, 轻雾

METAR: CYZT 221300Z 31005KT 6SM -RA BR OVC008 10/09 A3007 RMK SF8 SLP185

时间: 06:25 (13:25 UTC)

预报

该预报发布于47分钟前的12:38 UTC
预报有效从22日的 13点(UTC)到 23日的 01点(UTC)
风速3节,风向多变
能見度: 10公里
少量云层高于500英尺
多云层高于1500英尺
短暂存在
从 22日的 13点(UTC)到 22日的 19点(UTC)
能見度: 4.8公里
多云层高于500英尺
轻雾
从 22日的 1900点(UTC)
风速6节,风向
能見度: 10公里
散云层高于1000英尺
短暂存在
从 22日的 19点(UTC)到 22日的 22点(UTC)
多云层高于1000英尺
从 22日的 2200点(UTC)
风速10节,风向
能見度: 10公里
少量云层高于1000英尺

TAF: CYZT 221238Z 2213/2301 VRB03KT P6SM FEW005 BKN015 TEMPO 2213/2219 3SM BR BKN005 FM221900 36006KT P6SM SCT010 TEMPO 2219/2222 BKN010 FM222200 36010KT P6SM FEW010 RMK NXT FCST BY 221900Z

超过4000个机场的气象观测和天气预报(METAR&TAF报告)。

可查询的气象台以黄色和红色小点在地图上表示。

将鼠标移到小点上方,可查看气象台名称。

然后点击查看天气观测和预报。

如需切换地图:点击带黑十字的绿色按钮放大地图;点击带横线的绿色按钮缩小地图;或者点击绿色箭头查看邻近地区的地图。


METAR-TAF: